sensor_id;sensor_type;location;lat;lon;timestamp;P1;durP1;ratioP1;P2;durP2;ratioP2
14754;SDS011;7469;50.906;6.952;2023-11-19T00:00:22;0.93;;;0.77;;
14754;SDS011;7469;50.906;6.952;2023-11-19T00:02:50;0.67;;;0.67;;
14754;SDS011;7469;50.906;6.952;2023-11-19T00:05:18;1.57;;;1.03;;
14754;SDS011;7469;50.906;6.952;2023-11-19T00:07:47;2.50;;;0.93;;
14754;SDS011;7469;50.906;6.952;2023-11-19T00:10:16;0.93;;;0.80;;
14754;SDS011;7469;50.906;6.952;2023-11-19T00:12:46;2.80;;;1.60;;
14754;SDS011;7469;50.906;6.952;2023-11-19T00:15:15;1.17;;;1.00;;
14754;SDS011;7469;50.906;6.952;2023-11-19T00:17:46;2.13;;;0.70;;
14754;SDS011;7469;50.906;6.952;2023-11-19T00:20:16;1.30;;;0.90;;
14754;SDS011;7469;50.906;6.952;2023-11-19T00:22:45;0.70;;;0.70;;
14754;SDS011;7469;50.906;6.952;2023-11-19T00:25:17;2.63;;;0.80;;
14754;SDS011;7469;50.906;6.952;2023-11-19T00:27:46;0.80;;;0.80;;
14754;SDS011;7469;50.906;6.952;2023-11-19T00:30:14;1.10;;;0.90;;
14754;SDS011;7469;50.906;6.952;2023-11-19T00:32:45;2.20;;;1.20;;
14754;SDS011;7469;50.906;6.952;2023-11-19T00:35:13;0.87;;;0.77;;
14754;SDS011;7469;50.906;6.952;2023-11-19T00:37:41;2.87;;;1.17;;
14754;SDS011;7469;50.906;6.952;2023-11-19T00:40:12;1.00;;;1.00;;
14754;SDS011;7469;50.906;6.952;2023-11-19T00:42:43;1.50;;;1.10;;
14754;SDS011;7469;50.906;6.952;2023-11-19T00:45:12;1.40;;;0.83;;
14754;SDS011;7469;50.906;6.952;2023-11-19T00:47:40;1.17;;;1.00;;
14754;SDS011;7469;50.906;6.952;2023-11-19T00:50:08;2.23;;;0.73;;
14754;SDS011;7469;50.906;6.952;2023-11-19T00:52:37;0.93;;;0.87;;
14754;SDS011;7469;50.906;6.952;2023-11-19T00:55:06;2.00;;;0.80;;
14754;SDS011;7469;50.906;6.952;2023-11-19T00:57:34;0.90;;;0.90;;
14754;SDS011;7469;50.906;6.952;2023-11-19T01:00:04;1.00;;;0.70;;
14754;SDS011;7469;50.906;6.952;2023-11-19T01:02:45;2.93;;;0.80;;
14754;SDS011;7469;50.906;6.952;2023-11-19T01:05:16;1.40;;;0.70;;
14754;SDS011;7469;50.906;6.952;2023-11-19T01:07:47;0.90;;;0.70;;
14754;SDS011;7469;50.906;6.952;2023-11-19T01:10:16;1.07;;;0.87;;
14754;SDS011;7469;50.906;6.952;2023-11-19T01:12:45;3.13;;;1.00;;
14754;SDS011;7469;50.906;6.952;2023-11-19T01:15:14;1.20;;;0.80;;
14754;SDS011;7469;50.906;6.952;2023-11-19T01:17:44;0.60;;;0.60;;
14754;SDS011;7469;50.906;6.952;2023-11-19T01:20:15;1.47;;;0.70;;
14754;SDS011;7469;50.906;6.952;2023-11-19T01:22:43;1.43;;;0.80;;
14754;SDS011;7469;50.906;6.952;2023-11-19T01:25:11;2.17;;;0.93;;
14754;SDS011;7469;50.906;6.952;2023-11-19T01:27:40;1.10;;;0.87;;
14754;SDS011;7469;50.906;6.952;2023-11-19T01:30:08;1.13;;;1.00;;
14754;SDS011;7469;50.906;6.952;2023-11-19T01:32:41;2.43;;;0.70;;
14754;SDS011;7469;50.906;6.952;2023-11-19T01:35:09;1.90;;;0.73;;
14754;SDS011;7469;50.906;6.952;2023-11-19T01:37:37;0.70;;;0.60;;
14754;SDS011;7469;50.906;6.952;2023-11-19T01:40:05;2.13;;;0.80;;
14754;SDS011;7469;50.906;6.952;2023-11-19T01:42:37;2.03;;;0.80;;
14754;SDS011;7469;50.906;6.952;2023-11-19T01:45:05;2.57;;;1.10;;
14754;SDS011;7469;50.906;6.952;2023-11-19T01:47:34;0.80;;;0.70;;
14754;SDS011;7469;50.906;6.952;2023-11-19T01:50:05;3.37;;;1.30;;
14754;SDS011;7469;50.906;6.952;2023-11-19T01:52:34;2.90;;;1.37;;
14754;SDS011;7469;50.906;6.952;2023-11-19T01:55:04;4.67;;;1.67;;
14754;SDS011;7469;50.906;6.952;2023-11-19T01:57:35;6.37;;;1.93;;
14754;SDS011;7469;50.906;6.952;2023-11-19T02:00:07;5.13;;;2.00;;
14754;SDS011;7469;50.906;6.952;2023-11-19T02:02:38;3.17;;;1.70;;
14754;SDS011;7469;50.906;6.952;2023-11-19T02:05:09;4.17;;;1.70;;
14754;SDS011;7469;50.906;6.952;2023-11-19T02:07:38;3.60;;;1.60;;
14754;SDS011;7469;50.906;6.952;2023-11-19T02:10:07;6.20;;;1.70;;
14754;SDS011;7469;50.906;6.952;2023-11-19T02:12:39;4.63;;;2.13;;
14754;SDS011;7469;50.906;6.952;2023-11-19T02:15:10;7.47;;;1.73;;
14754;SDS011;7469;50.906;6.952;2023-11-19T02:17:38;6.87;;;1.90;;
14754;SDS011;7469;50.906;6.952;2023-11-19T02:20:06;7.70;;;2.03;;
14754;SDS011;7469;50.906;6.952;2023-11-19T02:22:38;9.43;;;1.97;;
14754;SDS011;7469;50.906;6.952;2023-11-19T02:25:07;4.17;;;1.63;;
14754;SDS011;7469;50.906;6.952;2023-11-19T02:27:46;5.90;;;1.80;;
14754;SDS011;7469;50.906;6.952;2023-11-19T02:30:18;4.77;;;1.80;;
14754;SDS011;7469;50.906;6.952;2023-11-19T02:32:46;5.20;;;1.53;;
14754;SDS011;7469;50.906;6.952;2023-11-19T02:35:14;10.33;;;2.00;;
14754;SDS011;7469;50.906;6.952;2023-11-19T02:37:42;4.97;;;1.60;;
14754;SDS011;7469;50.906;6.952;2023-11-19T02:40:11;6.33;;;1.80;;
14754;SDS011;7469;50.906;6.952;2023-11-19T02:42:39;4.27;;;1.97;;
14754;SDS011;7469;50.906;6.952;2023-11-19T02:45:09;7.23;;;1.90;;
14754;SDS011;7469;50.906;6.952;2023-11-19T02:47:40;10.40;;;2.90;;
14754;SDS011;7469;50.906;6.952;2023-11-19T02:50:09;10.73;;;1.83;;
14754;SDS011;7469;50.906;6.952;2023-11-19T02:52:40;6.33;;;1.97;;
14754;SDS011;7469;50.906;6.952;2023-11-19T02:55:08;10.77;;;2.13;;
14754;SDS011;7469;50.906;6.952;2023-11-19T02:57:39;8.40;;;2.00;;
14754;SDS011;7469;50.906;6.952;2023-11-19T03:00:14;9.03;;;1.97;;
14754;SDS011;7469;50.906;6.952;2023-11-19T03:02:43;10.00;;;2.43;;
14754;SDS011;7469;50.906;6.952;2023-11-19T03:05:13;8.87;;;2.13;;
14754;SDS011;7469;50.906;6.952;2023-11-19T03:07:43;11.10;;;2.00;;
14754;SDS011;7469;50.906;6.952;2023-11-19T03:10:11;6.23;;;1.90;;
14754;SDS011;7469;50.906;6.952;2023-11-19T03:12:41;9.60;;;2.03;;
14754;SDS011;7469;50.906;6.952;2023-11-19T03:15:10;7.80;;;2.03;;
14754;SDS011;7469;50.906;6.952;2023-11-19T03:17:40;6.83;;;2.03;;
14754;SDS011;7469;50.906;6.952;2023-11-19T03:20:09;9.83;;;2.47;;
14754;SDS011;7469;50.906;6.952;2023-11-19T03:22:41;12.17;;;2.50;;
14754;SDS011;7469;50.906;6.952;2023-11-19T03:25:10;9.77;;;2.00;;
14754;SDS011;7469;50.906;6.952;2023-11-19T03:27:39;9.80;;;2.03;;
14754;SDS011;7469;50.906;6.952;2023-11-19T03:30:08;10.10;;;2.30;;
14754;SDS011;7469;50.906;6.952;2023-11-19T03:32:37;13.77;;;2.70;;
14754;SDS011;7469;50.906;6.952;2023-11-19T03:35:07;13.53;;;2.70;;
14754;SDS011;7469;50.906;6.952;2023-11-19T03:37:35;9.03;;;2.43;;
14754;SDS011;7469;50.906;6.952;2023-11-19T03:40:04;11.13;;;2.50;;
14754;SDS011;7469;50.906;6.952;2023-11-19T03:42:33;11.87;;;2.00;;
14754;SDS011;7469;50.906;6.952;2023-11-19T03:45:01;11.03;;;2.73;;
14754;SDS011;7469;50.906;6.952;2023-11-19T03:47:30;11.87;;;2.30;;
14754;SDS011;7469;50.906;6.952;2023-11-19T03:49:58;11.63;;;2.43;;
14754;SDS011;7469;50.906;6.952;2023-11-19T03:52:27;12.93;;;2.80;;
14754;SDS011;7469;50.906;6.952;2023-11-19T03:54:56;14.97;;;2.37;;
14754;SDS011;7469;50.906;6.952;2023-11-19T03:57:24;15.63;;;2.50;;
14754;SDS011;7469;50.906;6.952;2023-11-19T03:59:52;8.97;;;2.23;;
14754;SDS011;7469;50.906;6.952;2023-11-19T04:02:21;11.30;;;2.67;;
14754;SDS011;7469;50.906;6.952;2023-11-19T04:04:50;9.30;;;2.57;;
14754;SDS011;7469;50.906;6.952;2023-11-19T04:07:18;12.20;;;2.60;;
14754;SDS011;7469;50.906;6.952;2023-11-19T04:09:48;8.83;;;2.40;;
14754;SDS011;7469;50.906;6.952;2023-11-19T04:12:16;11.63;;;2.10;;
14754;SDS011;7469;50.906;6.952;2023-11-19T04:14:44;9.00;;;1.93;;
14754;SDS011;7469;50.906;6.952;2023-11-19T04:17:12;8.20;;;2.20;;
14754;SDS011;7469;50.906;6.952;2023-11-19T04:19:40;8.93;;;2.00;;
14754;SDS011;7469;50.906;6.952;2023-11-19T04:22:09;13.90;;;3.27;;
14754;SDS011;7469;50.906;6.952;2023-11-19T04:24:38;9.67;;;2.43;;
14754;SDS011;7469;50.906;6.952;2023-11-19T04:27:08;12.80;;;2.30;;
14754;SDS011;7469;50.906;6.952;2023-11-19T04:29:36;12.40;;;2.43;;
14754;SDS011;7469;50.906;6.952;2023-11-19T04:32:04;9.97;;;2.40;;
14754;SDS011;7469;50.906;6.952;2023-11-19T04:34:33;6.67;;;2.20;;
14754;SDS011;7469;50.906;6.952;2023-11-19T04:37:01;16.40;;;3.00;;
14754;SDS011;7469;50.906;6.952;2023-11-19T04:39:33;19.70;;;3.87;;
14754;SDS011;7469;50.906;6.952;2023-11-19T04:42:01;13.50;;;3.00;;
14754;SDS011;7469;50.906;6.952;2023-11-19T04:44:32;19.17;;;3.07;;
14754;SDS011;7469;50.906;6.952;2023-11-19T04:47:00;16.90;;;3.13;;
14754;SDS011;7469;50.906;6.952;2023-11-19T04:49:28;13.90;;;2.67;;
14754;SDS011;7469;50.906;6.952;2023-11-19T04:51:57;18.40;;;3.30;;
14754;SDS011;7469;50.906;6.952;2023-11-19T04:54:25;11.57;;;3.27;;
14754;SDS011;7469;50.906;6.952;2023-11-19T04:56:53;13.37;;;2.80;;
14754;SDS011;7469;50.906;6.952;2023-11-19T04:59:21;15.37;;;2.80;;
14754;SDS011;7469;50.906;6.952;2023-11-19T05:01:50;12.00;;;2.53;;
14754;SDS011;7469;50.906;6.952;2023-11-19T05:04:18;10.70;;;2.60;;
14754;SDS011;7469;50.906;6.952;2023-11-19T05:06:46;10.83;;;2.90;;
14754;SDS011;7469;50.906;6.952;2023-11-19T05:09:14;19.20;;;3.20;;
14754;SDS011;7469;50.906;6.952;2023-11-19T05:11:42;15.33;;;3.03;;
14754;SDS011;7469;50.906;6.952;2023-11-19T05:14:13;12.13;;;2.60;;
14754;SDS011;7469;50.906;6.952;2023-11-19T05:16:41;8.87;;;2.10;;
14754;SDS011;7469;50.906;6.952;2023-11-19T05:19:11;14.50;;;2.60;;
14754;SDS011;7469;50.906;6.952;2023-11-19T05:21:41;11.20;;;2.53;;
14754;SDS011;7469;50.906;6.952;2023-11-19T05:24:09;12.77;;;2.40;;
14754;SDS011;7469;50.906;6.952;2023-11-19T05:26:38;13.50;;;2.60;;
14754;SDS011;7469;50.906;6.952;2023-11-19T05:29:06;16.13;;;3.07;;
14754;SDS011;7469;50.906;6.952;2023-11-19T05:31:34;12.50;;;2.60;;
14754;SDS011;7469;50.906;6.952;2023-11-19T05:34:04;11.70;;;2.87;;
14754;SDS011;7469;50.906;6.952;2023-11-19T05:36:35;20.90;;;3.03;;
14754;SDS011;7469;50.906;6.952;2023-11-19T05:39:03;13.93;;;2.93;;
14754;SDS011;7469;50.906;6.952;2023-11-19T05:41:31;11.77;;;3.00;;
14754;SDS011;7469;50.906;6.952;2023-11-19T05:43:59;15.20;;;3.30;;
14754;SDS011;7469;50.906;6.952;2023-11-19T05:46:27;19.77;;;3.70;;
14754;SDS011;7469;50.906;6.952;2023-11-19T05:48:55;14.70;;;3.07;;
14754;SDS011;7469;50.906;6.952;2023-11-19T05:51:24;13.03;;;3.30;;
14754;SDS011;7469;50.906;6.952;2023-11-19T05:53:53;17.67;;;3.80;;
14754;SDS011;7469;50.906;6.952;2023-11-19T05:56:22;14.73;;;3.37;;
14754;SDS011;7469;50.906;6.952;2023-11-19T05:58:51;17.37;;;3.43;;
14754;SDS011;7469;50.906;6.952;2023-11-19T06:01:19;16.73;;;3.80;;
14754;SDS011;7469;50.906;6.952;2023-11-19T06:03:47;23.60;;;3.97;;
14754;SDS011;7469;50.906;6.952;2023-11-19T06:06:17;16.67;;;3.70;;
14754;SDS011;7469;50.906;6.952;2023-11-19T06:08:45;20.30;;;3.47;;
14754;SDS011;7469;50.906;6.952;2023-11-19T06:11:14;19.40;;;3.87;;
14754;SDS011;7469;50.906;6.952;2023-11-19T06:13:44;23.80;;;4.07;;
14754;SDS011;7469;50.906;6.952;2023-11-19T06:16:12;23.83;;;3.63;;
14754;SDS011;7469;50.906;6.952;2023-11-19T06:18:41;20.60;;;4.07;;
14754;SDS011;7469;50.906;6.952;2023-11-19T06:21:10;25.27;;;3.97;;
14754;SDS011;7469;50.906;6.952;2023-11-19T06:23:38;17.43;;;3.90;;
14754;SDS011;7469;50.906;6.952;2023-11-19T06:26:06;22.60;;;4.73;;
14754;SDS011;7469;50.906;6.952;2023-11-19T06:28:36;24.17;;;6.13;;
14754;SDS011;7469;50.906;6.952;2023-11-19T06:31:04;20.00;;;4.27;;
14754;SDS011;7469;50.906;6.952;2023-11-19T06:33:32;22.90;;;4.10;;
14754;SDS011;7469;50.906;6.952;2023-11-19T06:36:00;23.63;;;4.10;;
14754;SDS011;7469;50.906;6.952;2023-11-19T06:38:28;22.80;;;4.77;;
14754;SDS011;7469;50.906;6.952;2023-11-19T06:40:56;20.50;;;3.83;;
14754;SDS011;7469;50.906;6.952;2023-11-19T06:43:24;20.77;;;4.00;;
14754;SDS011;7469;50.906;6.952;2023-11-19T06:45:53;25.10;;;4.47;;
14754;SDS011;7469;50.906;6.952;2023-11-19T06:48:21;19.67;;;3.90;;
14754;SDS011;7469;50.906;6.952;2023-11-19T06:50:49;21.00;;;4.63;;
14754;SDS011;7469;50.906;6.952;2023-11-19T06:53:17;23.10;;;4.53;;
14754;SDS011;7469;50.906;6.952;2023-11-19T06:55:45;13.90;;;4.07;;
14754;SDS011;7469;50.906;6.952;2023-11-19T06:58:13;23.70;;;4.40;;
14754;SDS011;7469;50.906;6.952;2023-11-19T07:00:41;22.70;;;3.43;;
14754;SDS011;7469;50.906;6.952;2023-11-19T07:03:10;17.03;;;3.80;;
14754;SDS011;7469;50.906;6.952;2023-11-19T07:05:39;15.17;;;3.77;;
14754;SDS011;7469;50.906;6.952;2023-11-19T07:08:07;22.00;;;3.90;;
14754;SDS011;7469;50.906;6.952;2023-11-19T07:10:35;19.80;;;3.87;;
14754;SDS011;7469;50.906;6.952;2023-11-19T07:13:03;23.87;;;4.03;;
14754;SDS011;7469;50.906;6.952;2023-11-19T07:15:32;23.23;;;4.33;;
14754;SDS011;7469;50.906;6.952;2023-11-19T07:18:00;26.07;;;4.20;;
14754;SDS011;7469;50.906;6.952;2023-11-19T07:20:30;13.70;;;3.37;;
14754;SDS011;7469;50.906;6.952;2023-11-19T07:22:59;18.43;;;4.10;;
14754;SDS011;7469;50.906;6.952;2023-11-19T07:25:27;19.97;;;3.90;;
14754;SDS011;7469;50.906;6.952;2023-11-19T07:27:55;20.00;;;4.50;;
14754;SDS011;7469;50.906;6.952;2023-11-19T07:30:23;17.03;;;3.50;;
14754;SDS011;7469;50.906;6.952;2023-11-19T07:32:51;18.57;;;3.50;;
14754;SDS011;7469;50.906;6.952;2023-11-19T07:35:19;19.03;;;4.07;;
14754;SDS011;7469;50.906;6.952;2023-11-19T07:37:48;21.17;;;4.10;;
14754;SDS011;7469;50.906;6.952;2023-11-19T07:40:16;23.27;;;4.13;;
14754;SDS011;7469;50.906;6.952;2023-11-19T07:42:45;25.37;;;4.10;;
14754;SDS011;7469;50.906;6.952;2023-11-19T07:45:13;22.83;;;3.70;;
14754;SDS011;7469;50.906;6.952;2023-11-19T07:47:41;24.23;;;4.30;;
14754;SDS011;7469;50.906;6.952;2023-11-19T07:50:11;21.73;;;4.30;;
14754;SDS011;7469;50.906;6.952;2023-11-19T07:52:40;24.73;;;4.57;;
14754;SDS011;7469;50.906;6.952;2023-11-19T07:55:09;19.70;;;3.40;;
14754;SDS011;7469;50.906;6.952;2023-11-19T07:57:38;23.77;;;4.40;;
14754;SDS011;7469;50.906;6.952;2023-11-19T08:00:06;23.13;;;4.00;;
14754;SDS011;7469;50.906;6.952;2023-11-19T08:02:38;19.47;;;4.27;;
14754;SDS011;7469;50.906;6.952;2023-11-19T08:05:07;18.33;;;4.10;;
14754;SDS011;7469;50.906;6.952;2023-11-19T08:07:35;24.33;;;4.80;;
14754;SDS011;7469;50.906;6.952;2023-11-19T08:10:04;19.67;;;4.57;;
14754;SDS011;7469;50.906;6.952;2023-11-19T08:12:37;18.53;;;3.80;;
14754;SDS011;7469;50.906;6.952;2023-11-19T08:15:05;19.40;;;4.30;;
14754;SDS011;7469;50.906;6.952;2023-11-19T08:17:34;21.93;;;4.07;;
14754;SDS011;7469;50.906;6.952;2023-11-19T08:20:02;22.17;;;3.90;;
14754;SDS011;7469;50.906;6.952;2023-11-19T08:22:36;19.37;;;4.10;;
14754;SDS011;7469;50.906;6.952;2023-11-19T08:25:04;21.37;;;4.17;;
14754;SDS011;7469;50.906;6.952;2023-11-19T08:27:34;18.70;;;4.07;;
14754;SDS011;7469;50.906;6.952;2023-11-19T08:30:04;21.93;;;4.13;;
14754;SDS011;7469;50.906;6.952;2023-11-19T08:32:34;21.90;;;4.47;;
14754;SDS011;7469;50.906;6.952;2023-11-19T08:35:02;19.63;;;4.30;;
14754;SDS011;7469;50.906;6.952;2023-11-19T08:37:31;23.67;;;4.43;;
14754;SDS011;7469;50.906;6.952;2023-11-19T08:39:59;24.87;;;4.30;;
14754;SDS011;7469;50.906;6.952;2023-11-19T08:42:27;27.10;;;4.97;;
14754;SDS011;7469;50.906;6.952;2023-11-19T08:44:55;22.27;;;4.03;;
14754;SDS011;7469;50.906;6.952;2023-11-19T08:47:25;23.47;;;4.70;;
14754;SDS011;7469;50.906;6.952;2023-11-19T08:49:53;27.63;;;4.27;;
14754;SDS011;7469;50.906;6.952;2023-11-19T08:52:24;20.80;;;4.10;;
14754;SDS011;7469;50.906;6.952;2023-11-19T08:54:52;20.97;;;4.33;;
14754;SDS011;7469;50.906;6.952;2023-11-19T08:57:20;17.03;;;4.07;;
14754;SDS011;7469;50.906;6.952;2023-11-19T08:59:48;20.70;;;3.57;;
14754;SDS011;7469;50.906;6.952;2023-11-19T09:02:16;14.73;;;4.23;;
14754;SDS011;7469;50.906;6.952;2023-11-19T09:04:46;20.83;;;4.10;;
14754;SDS011;7469;50.906;6.952;2023-11-19T09:07:16;17.80;;;4.03;;
14754;SDS011;7469;50.906;6.952;2023-11-19T09:09:44;16.93;;;3.87;;
14754;SDS011;7469;50.906;6.952;2023-11-19T09:12:12;15.27;;;3.47;;
14754;SDS011;7469;50.906;6.952;2023-11-19T09:14:41;19.07;;;4.50;;
14754;SDS011;7469;50.906;6.952;2023-11-19T09:17:10;18.33;;;4.37;;
14754;SDS011;7469;50.906;6.952;2023-11-19T09:19:38;21.93;;;4.20;;
14754;SDS011;7469;50.906;6.952;2023-11-19T09:22:08;19.37;;;4.57;;
14754;SDS011;7469;50.906;6.952;2023-11-19T09:24:36;20.00;;;4.40;;
14754;SDS011;7469;50.906;6.952;2023-11-19T09:27:04;15.73;;;4.30;;
14754;SDS011;7469;50.906;6.952;2023-11-19T09:29:33;13.37;;;3.93;;
14754;SDS011;7469;50.906;6.952;2023-11-19T09:32:00;15.87;;;3.63;;
14754;SDS011;7469;50.906;6.952;2023-11-19T09:34:31;24.43;;;4.17;;
14754;SDS011;7469;50.906;6.952;2023-11-19T09:36:59;20.87;;;4.70;;
14754;SDS011;7469;50.906;6.952;2023-11-19T09:39:29;21.80;;;4.20;;
14754;SDS011;7469;50.906;6.952;2023-11-19T09:41:57;15.00;;;4.13;;
14754;SDS011;7469;50.906;6.952;2023-11-19T09:44:25;21.30;;;5.20;;
14754;SDS011;7469;50.906;6.952;2023-11-19T09:46:54;18.30;;;4.30;;
14754;SDS011;7469;50.906;6.952;2023-11-19T09:49:25;21.43;;;5.20;;
14754;SDS011;7469;50.906;6.952;2023-11-19T09:51:57;24.30;;;4.50;;
14754;SDS011;7469;50.906;6.952;2023-11-19T09:54:25;21.97;;;4.80;;
14754;SDS011;7469;50.906;6.952;2023-11-19T09:56:54;18.70;;;4.40;;
14754;SDS011;7469;50.906;6.952;2023-11-19T09:59:26;17.03;;;3.67;;
14754;SDS011;7469;50.906;6.952;2023-11-19T10:01:55;18.70;;;4.20;;
14754;SDS011;7469;50.906;6.952;2023-11-19T10:04:24;15.30;;;3.90;;
14754;SDS011;7469;50.906;6.952;2023-11-19T10:06:54;19.93;;;4.63;;
14754;SDS011;7469;50.906;6.952;2023-11-19T10:09:22;18.13;;;4.17;;
14754;SDS011;7469;50.906;6.952;2023-11-19T10:11:50;17.90;;;4.40;;
14754;SDS011;7469;50.906;6.952;2023-11-19T10:14:19;22.70;;;5.10;;
14754;SDS011;7469;50.906;6.952;2023-11-19T10:16:50;16.37;;;4.50;;
14754;SDS011;7469;50.906;6.952;2023-11-19T10:19:19;23.47;;;5.40;;
14754;SDS011;7469;50.906;6.952;2023-11-19T10:21:47;20.43;;;4.57;;
14754;SDS011;7469;50.906;6.952;2023-11-19T10:24:15;19.50;;;5.10;;
14754;SDS011;7469;50.906;6.952;2023-11-19T10:26:46;21.83;;;4.47;;
14754;SDS011;7469;50.906;6.952;2023-11-19T10:29:14;19.30;;;4.40;;
14754;SDS011;7469;50.906;6.952;2023-11-19T10:31:44;18.70;;;4.13;;
14754;SDS011;7469;50.906;6.952;2023-11-19T10:34:43;16.97;;;3.87;;
14754;SDS011;7469;50.906;6.952;2023-11-19T10:37:17;19.30;;;4.17;;
14754;SDS011;7469;50.906;6.952;2023-11-19T10:39:54;21.40;;;4.33;;
14754;SDS011;7469;50.906;6.952;2023-11-19T10:42:23;19.80;;;4.30;;
14754;SDS011;7469;50.906;6.952;2023-11-19T10:44:51;18.20;;;4.20;;
14754;SDS011;7469;50.906;6.952;2023-11-19T10:47:20;20.23;;;4.40;;
14754;SDS011;7469;50.906;6.952;2023-11-19T10:49:53;17.73;;;3.87;;
14754;SDS011;7469;50.906;6.952;2023-11-19T10:52:22;21.67;;;4.20;;
14754;SDS011;7469;50.906;6.952;2023-11-19T10:54:51;17.30;;;4.20;;
14754;SDS011;7469;50.906;6.952;2023-11-19T10:57:21;14.27;;;3.50;;
14754;SDS011;7469;50.906;6.952;2023-11-19T10:59:55;19.23;;;4.60;;
14754;SDS011;7469;50.906;6.952;2023-11-19T11:02:30;16.63;;;3.90;;
14754;SDS011;7469;50.906;6.952;2023-11-19T11:05:03;20.07;;;4.53;;
14754;SDS011;7469;50.906;6.952;2023-11-19T11:07:34;17.93;;;3.63;;
14754;SDS011;7469;50.906;6.952;2023-11-19T11:10:07;17.70;;;4.00;;
14754;SDS011;7469;50.906;6.952;2023-11-19T11:12:36;15.07;;;4.03;;
14754;SDS011;7469;50.906;6.952;2023-11-19T11:15:07;26.37;;;9.50;;
14754;SDS011;7469;50.906;6.952;2023-11-19T11:17:39;20.13;;;4.63;;
14754;SDS011;7469;50.906;6.952;2023-11-19T11:20:11;17.17;;;4.07;;
14754;SDS011;7469;50.906;6.952;2023-11-19T11:22:41;20.07;;;4.43;;
14754;SDS011;7469;50.906;6.952;2023-11-19T11:25:23;20.97;;;4.13;;
14754;SDS011;7469;50.906;6.952;2023-11-19T11:28:06;14.77;;;3.40;;
14754;SDS011;7469;50.906;6.952;2023-11-19T11:30:47;17.73;;;3.47;;
14754;SDS011;7469;50.906;6.952;2023-11-19T11:33:31;19.23;;;4.20;;
14754;SDS011;7469;50.906;6.952;2023-11-19T11:36:11;13.97;;;4.07;;
14754;SDS011;7469;50.906;6.952;2023-11-19T11:38:44;18.03;;;3.50;;
14754;SDS011;7469;50.906;6.952;2023-11-19T11:41:16;18.47;;;3.53;;
14754;SDS011;7469;50.906;6.952;2023-11-19T11:43:47;15.00;;;3.83;;
14754;SDS011;7469;50.906;6.952;2023-11-19T11:49:28;16.00;;;4.27;;
14754;SDS011;7469;50.906;6.952;2023-11-19T11:52:01;15.40;;;3.27;;
14754;SDS011;7469;50.906;6.952;2023-11-19T11:54:30;18.27;;;3.13;;
14754;SDS011;7469;50.906;6.952;2023-11-19T11:57:09;13.43;;;2.73;;
14754;SDS011;7469;50.906;6.952;2023-11-19T11:59:47;13.17;;;2.83;;
14754;SDS011;7469;50.906;6.952;2023-11-19T12:02:16;13.27;;;3.70;;
14754;SDS011;7469;50.906;6.952;2023-11-19T12:04:48;12.50;;;3.27;;
14754;SDS011;7469;50.906;6.952;2023-11-19T12:07:19;16.30;;;4.10;;
14754;SDS011;7469;50.906;6.952;2023-11-19T12:09:51;12.00;;;3.67;;
14754;SDS011;7469;50.906;6.952;2023-11-19T12:12:22;12.77;;;3.00;;
14754;SDS011;7469;50.906;6.952;2023-11-19T12:14:59;14.40;;;3.00;;
14754;SDS011;7469;50.906;6.952;2023-11-19T12:17:36;12.47;;;3.83;;
14754;SDS011;7469;50.906;6.952;2023-11-19T12:20:19;14.70;;;3.40;;
14754;SDS011;7469;50.906;6.952;2023-11-19T12:22:53;15.37;;;3.60;;
14754;SDS011;7469;50.906;6.952;2023-11-19T12:25:21;9.63;;;2.87;;
14754;SDS011;7469;50.906;6.952;2023-11-19T12:27:50;18.63;;;3.97;;
14754;SDS011;7469;50.906;6.952;2023-11-19T12:30:21;14.83;;;3.73;;
14754;SDS011;7469;50.906;6.952;2023-11-19T12:32:50;12.37;;;3.60;;
14754;SDS011;7469;50.906;6.952;2023-11-19T12:35:22;10.50;;;3.40;;
14754;SDS011;7469;50.906;6.952;2023-11-19T12:37:51;15.03;;;3.73;;
14754;SDS011;7469;50.906;6.952;2023-11-19T12:40:20;14.10;;;3.27;;
14754;SDS011;7469;50.906;6.952;2023-11-19T12:42:50;14.30;;;3.33;;
14754;SDS011;7469;50.906;6.952;2023-11-19T12:45:19;8.67;;;2.60;;
14754;SDS011;7469;50.906;6.952;2023-11-19T12:47:49;16.07;;;3.50;;
14754;SDS011;7469;50.906;6.952;2023-11-19T12:50:19;13.77;;;3.10;;
14754;SDS011;7469;50.906;6.952;2023-11-19T12:52:56;10.80;;;3.30;;
14754;SDS011;7469;50.906;6.952;2023-11-19T12:55:25;11.73;;;2.63;;
14754;SDS011;7469;50.906;6.952;2023-11-19T12:57:56;10.70;;;4.37;;
14754;SDS011;7469;50.906;6.952;2023-11-19T13:00:26;13.27;;;3.00;;
14754;SDS011;7469;50.906;6.952;2023-11-19T13:02:55;13.23;;;3.30;;
14754;SDS011;7469;50.906;6.952;2023-11-19T13:05:27;13.30;;;3.30;;
14754;SDS011;7469;50.906;6.952;2023-11-19T13:08:03;15.60;;;3.33;;
14754;SDS011;7469;50.906;6.952;2023-11-19T13:10:33;11.90;;;3.10;;
14754;SDS011;7469;50.906;6.952;2023-11-19T13:13:04;13.80;;;3.27;;
14754;SDS011;7469;50.906;6.952;2023-11-19T13:15:35;13.70;;;3.30;;
14754;SDS011;7469;50.906;6.952;2023-11-19T13:18:03;13.23;;;3.17;;
14754;SDS011;7469;50.906;6.952;2023-11-19T13:20:33;12.97;;;3.00;;
14754;SDS011;7469;50.906;6.952;2023-11-19T13:23:01;16.67;;;3.57;;
14754;SDS011;7469;50.906;6.952;2023-11-19T13:25:32;11.97;;;3.20;;
14754;SDS011;7469;50.906;6.952;2023-11-19T13:28:00;23.40;;;3.43;;
14754;SDS011;7469;50.906;6.952;2023-11-19T13:30:28;14.57;;;3.60;;
14754;SDS011;7469;50.906;6.952;2023-11-19T13:32:56;19.87;;;3.80;;
14754;SDS011;7469;50.906;6.952;2023-11-19T13:35:25;20.77;;;4.07;;
14754;SDS011;7469;50.906;6.952;2023-11-19T13:37:54;12.03;;;3.57;;
14754;SDS011;7469;50.906;6.952;2023-11-19T13:40:23;18.40;;;4.17;;
14754;SDS011;7469;50.906;6.952;2023-11-19T13:42:51;16.67;;;3.23;;
14754;SDS011;7469;50.906;6.952;2023-11-19T13:45:19;16.40;;;3.20;;
14754;SDS011;7469;50.906;6.952;2023-11-19T13:47:47;14.13;;;3.47;;
14754;SDS011;7469;50.906;6.952;2023-11-19T13:50:16;17.53;;;3.50;;
14754;SDS011;7469;50.906;6.952;2023-11-19T13:52:44;20.43;;;3.60;;
14754;SDS011;7469;50.906;6.952;2023-11-19T13:55:13;11.17;;;3.00;;
14754;SDS011;7469;50.906;6.952;2023-11-19T13:57:43;17.20;;;4.10;;
14754;SDS011;7469;50.906;6.952;2023-11-19T14:00:12;15.77;;;3.50;;
14754;SDS011;7469;50.906;6.952;2023-11-19T14:02:43;17.33;;;4.07;;
14754;SDS011;7469;50.906;6.952;2023-11-19T14:05:11;15.10;;;3.73;;
14754;SDS011;7469;50.906;6.952;2023-11-19T14:07:40;15.77;;;3.70;;
14754;SDS011;7469;50.906;6.952;2023-11-19T14:10:08;12.40;;;3.47;;
14754;SDS011;7469;50.906;6.952;2023-11-19T14:12:37;19.60;;;3.83;;
14754;SDS011;7469;50.906;6.952;2023-11-19T14:15:07;14.80;;;3.70;;
14754;SDS011;7469;50.906;6.952;2023-11-19T14:17:39;16.87;;;3.83;;
14754;SDS011;7469;50.906;6.952;2023-11-19T14:20:08;15.83;;;3.80;;
14754;SDS011;7469;50.906;6.952;2023-11-19T14:22:39;13.33;;;3.27;;
14754;SDS011;7469;50.906;6.952;2023-11-19T14:25:08;20.40;;;4.03;;
14754;SDS011;7469;50.906;6.952;2023-11-19T14:27:37;14.27;;;3.13;;
14754;SDS011;7469;50.906;6.952;2023-11-19T14:30:07;16.00;;;4.07;;
14754;SDS011;7469;50.906;6.952;2023-11-19T14:32:37;15.83;;;4.33;;
14754;SDS011;7469;50.906;6.952;2023-11-19T14:35:06;18.37;;;3.47;;
14754;SDS011;7469;50.906;6.952;2023-11-19T14:37:35;11.10;;;2.90;;
14754;SDS011;7469;50.906;6.952;2023-11-19T14:40:03;12.67;;;2.77;;
14754;SDS011;7469;50.906;6.952;2023-11-19T14:42:33;17.20;;;3.73;;
14754;SDS011;7469;50.906;6.952;2023-11-19T14:45:01;12.80;;;3.40;;
14754;SDS011;7469;50.906;6.952;2023-11-19T14:47:30;12.57;;;3.10;;
14754;SDS011;7469;50.906;6.952;2023-11-19T14:49:58;13.77;;;3.30;;
14754;SDS011;7469;50.906;6.952;2023-11-19T14:52:26;16.97;;;3.57;;
14754;SDS011;7469;50.906;6.952;2023-11-19T14:54:54;13.43;;;3.10;;
14754;SDS011;7469;50.906;6.952;2023-11-19T14:57:23;14.67;;;3.43;;
14754;SDS011;7469;50.906;6.952;2023-11-19T14:59:51;15.93;;;3.20;;
14754;SDS011;7469;50.906;6.952;2023-11-19T15:02:19;14.83;;;3.23;;
14754;SDS011;7469;50.906;6.952;2023-11-19T15:04:49;18.43;;;4.10;;
14754;SDS011;7469;50.906;6.952;2023-11-19T15:07:17;13.00;;;3.13;;